createdAt,value
2023-06-08T00:00:05.305Z,16.93
2023-06-08T00:00:35.012Z,16.91
2023-06-08T00:01:05.020Z,16.89
2023-06-08T00:01:35.021Z,16.88
2023-06-08T00:02:05.018Z,16.88
2023-06-08T00:02:35.065Z,16.85
2023-06-08T00:03:05.103Z,16.85
2023-06-08T00:03:35.116Z,16.85
2023-06-08T00:04:05.012Z,16.85
2023-06-08T00:04:35.270Z,16.83
2023-06-08T00:05:05.117Z,16.85
2023-06-08T00:05:35.024Z,16.83
2023-06-08T00:06:04.996Z,16.85
2023-06-08T00:06:34.963Z,16.85
2023-06-08T00:07:04.975Z,16.86
2023-06-08T00:07:35.080Z,16.85
2023-06-08T00:08:05.142Z,16.86
2023-06-08T00:08:34.949Z,16.85
2023-06-08T00:09:04.947Z,16.85
2023-06-08T00:09:34.946Z,16.85
2023-06-08T00:10:05.658Z,16.85
2023-06-08T00:10:34.951Z,16.86
2023-06-08T00:11:04.924Z,16.86
2023-06-08T00:11:34.910Z,16.85
2023-06-08T00:12:04.902Z,16.85
2023-06-08T00:12:34.884Z,16.82
2023-06-08T00:13:04.886Z,16.82
2023-06-08T00:13:34.914Z,16.82
2023-06-08T00:14:04.879Z,16.82
2023-06-08T00:14:34.914Z,16.82
2023-06-08T00:15:04.883Z,16.83
2023-06-08T00:15:34.880Z,16.83
2023-06-08T00:16:04.882Z,16.83
2023-06-08T00:16:34.872Z,16.83
2023-06-08T00:17:04.909Z,16.83
2023-06-08T00:17:35.054Z,16.83
2023-06-08T00:18:04.946Z,16.85
2023-06-08T00:18:34.915Z,16.85
2023-06-08T00:19:04.897Z,16.83
2023-06-08T00:19:34.876Z,16.85
2023-06-08T00:20:05.136Z,16.86
2023-06-08T00:20:34.841Z,16.88
2023-06-08T00:21:04.876Z,16.86
2023-06-08T00:21:34.977Z,16.86
2023-06-08T00:22:05.061Z,16.88
2023-06-08T00:22:34.979Z,16.89
2023-06-08T00:23:04.848Z,16.88
2023-06-08T00:23:34.903Z,16.88
2023-06-08T00:24:04.854Z,16.88
2023-06-08T00:24:34.781Z,16.88
2023-06-08T00:25:04.774Z,16.89
2023-06-08T00:25:34.753Z,16.89
2023-06-08T00:26:04.759Z,16.89
2023-06-08T00:26:34.772Z,16.89
2023-06-08T00:27:04.763Z,16.89
2023-06-08T00:27:34.766Z,16.91
2023-06-08T00:28:04.794Z,16.91
2023-06-08T00:28:34.735Z,16.91
2023-06-08T00:29:04.790Z,16.93
2023-06-08T00:29:34.747Z,16.93
2023-06-08T00:30:05.134Z,16.93
2023-06-08T00:30:34.741Z,16.93
2023-06-08T00:31:04.693Z,16.94
2023-06-08T00:31:34.758Z,16.94
2023-06-08T00:32:04.862Z,16.96
2023-06-08T00:32:34.760Z,16.94
2023-06-08T00:33:04.822Z,16.96
2023-06-08T00:33:34.684Z,16.96
2023-06-08T00:34:04.709Z,16.94
2023-06-08T00:34:34.709Z,16.93
2023-06-08T00:35:04.676Z,16.93
2023-06-08T00:35:34.804Z,16.94
2023-06-08T00:36:04.856Z,16.96
2023-06-08T00:36:34.652Z,16.93
2023-06-08T00:37:04.655Z,16.94
2023-06-08T00:37:34.632Z,16.93
2023-06-08T00:38:04.743Z,16.94
2023-06-08T00:38:34.637Z,16.93
2023-06-08T00:39:04.625Z,16.94
2023-06-08T00:39:34.614Z,16.96
2023-06-08T00:40:04.960Z,16.96
2023-06-08T00:40:34.640Z,16.96
2023-06-08T00:41:04.637Z,16.96
2023-06-08T00:41:34.604Z,16.96
2023-06-08T00:42:04.657Z,16.94
2023-06-08T00:42:34.703Z,16.94
2023-06-08T00:43:04.579Z,16.94
2023-06-08T00:43:34.574Z,16.96
2023-06-08T00:44:04.609Z,16.94
2023-06-08T00:44:34.579Z,16.97
2023-06-08T00:45:04.562Z,16.97
2023-06-08T00:45:34.589Z,16.97
2023-06-08T00:46:04.627Z,16.98
2023-06-08T00:46:34.678Z,16.97
2023-06-08T00:47:04.573Z,16.98
2023-06-08T00:47:34.635Z,16.98
2023-06-08T00:48:05.136Z,17.00
2023-06-08T00:48:34.551Z,17.00
2023-06-08T00:49:04.517Z,17.00
2023-06-08T00:49:34.637Z,16.98
2023-06-08T00:50:04.979Z,17.01
2023-06-08T00:50:34.536Z,17.00
2023-06-08T00:51:04.528Z,17.01
2023-06-08T00:51:34.543Z,17.00
2023-06-08T00:52:04.527Z,17.00
2023-06-08T00:52:34.519Z,16.98
2023-06-08T00:53:04.484Z,16.96
2023-06-08T00:53:34.476Z,16.97
2023-06-08T00:54:04.529Z,16.98
2023-06-08T00:54:34.467Z,16.98
2023-06-08T00:55:04.452Z,16.97
2023-06-08T00:55:34.470Z,16.96
2023-06-08T00:56:04.502Z,16.97
2023-06-08T00:56:34.466Z,16.97
2023-06-08T00:57:04.436Z,16.97
2023-06-08T00:57:34.480Z,16.97
2023-06-08T00:58:04.469Z,16.98
2023-06-08T00:58:34.468Z,17.00
2023-06-08T00:59:04.439Z,16.98
2023-06-08T00:59:34.484Z,16.98
2023-06-08T01:00:04.775Z,16.98
2023-06-08T01:00:34.434Z,16.98
2023-06-08T01:01:04.455Z,16.98
2023-06-08T01:01:34.457Z,16.98
2023-06-08T01:02:04.418Z,17.00
2023-06-08T01:02:34.456Z,16.98
2023-06-08T01:03:04.642Z,17.00
2023-06-08T01:03:34.526Z,17.01
2023-06-08T01:04:04.679Z,17.01
2023-06-08T01:04:34.465Z,17.01
2023-06-08T01:05:04.355Z,17.00
2023-06-08T01:05:34.417Z,17.01
2023-06-08T01:06:04.421Z,17.01
2023-06-08T01:06:34.333Z,17.03
2023-06-08T01:07:04.437Z,17.03
2023-06-08T01:07:34.339Z,17.01
2023-06-08T01:08:04.339Z,17.01
2023-06-08T01:08:34.354Z,17.03
2023-06-08T01:09:04.320Z,17.01
2023-06-08T01:09:34.312Z,17.01
2023-06-08T01:10:04.560Z,17.01
2023-06-08T01:10:34.322Z,17.03
2023-06-08T01:11:04.292Z,17.03
2023-06-08T01:11:34.292Z,17.03
2023-06-08T01:12:04.265Z,17.03
2023-06-08T01:12:34.264Z,17.01
2023-06-08T01:13:04.305Z,17.01
2023-06-08T01:13:34.273Z,17.03
2023-06-08T01:14:04.267Z,17.01
2023-06-08T01:14:34.261Z,17.01
2023-06-08T01:15:04.291Z,17.01
2023-06-08T01:15:34.273Z,17.01
2023-06-08T01:16:04.250Z,16.98
2023-06-08T01:16:34.507Z,17.00
2023-06-08T01:17:06.336Z,17.00
2023-06-08T01:17:42.405Z,16.98
2023-06-08T01:18:04.450Z,16.98
2023-06-08T01:18:34.243Z,16.98
2023-06-08T01:19:04.193Z,16.98
2023-06-08T01:19:34.220Z,16.97
2023-06-08T01:20:04.399Z,16.97
2023-06-08T01:20:34.198Z,16.96
2023-06-08T01:21:04.199Z,16.97
2023-06-08T01:21:34.209Z,16.96
2023-06-08T01:22:04.175Z,16.96
2023-06-08T01:22:34.177Z,16.96
2023-06-08T01:23:04.190Z,16.96
2023-06-08T01:23:34.267Z,16.94
2023-06-08T01:24:04.205Z,16.96
2023-06-08T01:24:34.171Z,16.94
2023-06-08T01:25:04.153Z,16.94
2023-06-08T01:25:35.093Z,16.94
2023-06-08T01:26:04.138Z,16.91
2023-06-08T01:26:34.116Z,16.93
2023-06-08T01:27:04.155Z,16.91
2023-06-08T01:27:34.123Z,16.89
2023-06-08T01:28:04.106Z,16.89
2023-06-08T01:28:34.128Z,16.88
2023-06-08T01:29:04.162Z,16.89
2023-06-08T01:29:34.090Z,16.88
2023-06-08T01:30:04.428Z,16.88
2023-06-08T01:30:34.129Z,16.88
2023-06-08T01:31:04.201Z,16.88
2023-06-08T01:31:34.229Z,16.86
2023-06-08T01:32:04.302Z,16.86
2023-06-08T01:32:34.099Z,16.85
2023-06-08T01:33:04.140Z,16.85
2023-06-08T01:33:34.048Z,16.86
2023-06-08T01:34:04.083Z,16.86
2023-06-08T01:34:34.045Z,16.85
2023-06-08T01:35:04.029Z,16.82
2023-06-08T01:35:34.050Z,16.85
2023-06-08T01:36:04.024Z,16.86
2023-06-08T01:36:34.014Z,16.81
2023-06-08T01:37:04.010Z,16.78
2023-06-08T01:37:34.016Z,16.75
2023-06-08T01:38:04.042Z,16.71
2023-06-08T01:38:33.995Z,16.73
2023-06-08T01:39:04.022Z,16.71
2023-06-08T01:39:34.009Z,16.70
2023-06-08T01:40:04.366Z,16.71
2023-06-08T01:40:33.980Z,16.71
2023-06-08T01:41:04.595Z,16.73
2023-06-08T01:41:33.972Z,16.70
2023-06-08T01:42:03.958Z,16.70
2023-06-08T01:42:33.969Z,16.68
2023-06-08T01:43:03.960Z,16.70
2023-06-08T01:43:33.972Z,16.68
2023-06-08T01:44:03.973Z,16.70
2023-06-08T01:44:33.925Z,16.68
2023-06-08T01:45:03.977Z,16.68
2023-06-08T01:45:34.066Z,16.67
2023-06-08T01:46:04.194Z,16.66
2023-06-08T01:46:33.976Z,16.63
2023-06-08T01:47:04.062Z,16.58
2023-06-08T01:47:33.972Z,16.57
2023-06-08T01:48:04.016Z,16.56
2023-06-08T01:48:33.879Z,16.52
2023-06-08T01:49:03.903Z,16.50
2023-06-08T01:49:33.897Z,16.48
2023-06-08T01:50:04.208Z,16.48
2023-06-08T01:50:33.894Z,16.46
2023-06-08T01:51:03.874Z,16.43
2023-06-08T01:51:33.903Z,16.43
2023-06-08T01:52:03.843Z,16.39
2023-06-08T01:52:33.868Z,16.33
2023-06-08T01:53:03.868Z,16.31
2023-06-08T01:53:33.878Z,16.28
2023-06-08T01:54:03.848Z,16.25
2023-06-08T01:54:33.847Z,16.25
2023-06-08T01:55:03.820Z,16.24
2023-06-08T01:55:33.831Z,16.23
2023-06-08T01:56:03.852Z,16.23
2023-06-08T01:56:33.824Z,16.21
2023-06-08T01:57:03.802Z,16.14
2023-06-08T01:57:33.808Z,16.09
2023-06-08T01:58:04.602Z,16.05
2023-06-08T01:58:33.773Z,16.02
2023-06-08T01:59:03.808Z,16.01
2023-06-08T01:59:36.310Z,16.01
2023-06-08T02:00:04.240Z,16.01
2023-06-08T02:00:33.801Z,16.00
2023-06-08T02:01:03.796Z,16.00
2023-06-08T02:01:33.817Z,15.97
2023-06-08T02:02:03.804Z,15.97
2023-06-08T02:02:33.814Z,15.96
2023-06-08T02:03:03.782Z,15.93
2023-06-08T02:03:33.791Z,15.93
2023-06-08T02:04:03.716Z,15.92
2023-06-08T02:04:33.759Z,15.90
2023-06-08T02:05:03.765Z,15.86
2023-06-08T02:05:33.728Z,15.83
2023-06-08T02:06:03.731Z,15.80
2023-06-08T02:06:33.745Z,15.80
2023-06-08T02:07:03.704Z,15.80
2023-06-08T02:07:33.697Z,15.78
2023-06-08T02:08:03.682Z,15.76
2023-06-08T02:08:33.671Z,15.76
2023-06-08T02:09:03.671Z,15.78
2023-06-08T02:09:33.665Z,15.76
2023-06-08T02:10:04.094Z,15.78
2023-06-08T02:10:33.672Z,15.76
2023-06-08T02:11:03.662Z,15.76
2023-06-08T02:11:33.670Z,15.75
2023-06-08T02:12:03.689Z,15.75
2023-06-08T02:12:33.641Z,15.76
2023-06-08T02:13:03.627Z,15.75
2023-06-08T02:13:33.762Z,15.76
2023-06-08T02:14:03.820Z,15.75
2023-06-08T02:14:33.615Z,15.75
2023-06-08T02:15:03.618Z,15.74
2023-06-08T02:15:33.627Z,15.75
2023-06-08T02:16:03.606Z,15.74
2023-06-08T02:16:33.617Z,15.75
2023-06-08T02:17:03.656Z,15.72
2023-06-08T02:17:33.650Z,15.74
2023-06-08T02:18:03.677Z,15.72
2023-06-08T02:18:33.594Z,15.72
2023-06-08T02:19:03.611Z,15.72
2023-06-08T02:19:33.588Z,15.71
2023-06-08T02:20:04.014Z,15.71
2023-06-08T02:20:33.550Z,15.71
2023-06-08T02:21:03.562Z,15.69
2023-06-08T02:21:33.562Z,15.71
2023-06-08T02:22:03.554Z,15.71
2023-06-08T02:22:34.168Z,15.69
2023-06-08T02:23:03.554Z,15.69
2023-06-08T02:23:33.646Z,15.69
2023-06-08T02:24:03.638Z,15.67
2023-06-08T02:24:33.552Z,15.67
2023-06-08T02:25:03.551Z,15.64
2023-06-08T02:25:33.564Z,15.64
2023-06-08T02:26:03.494Z,15.62
2023-06-08T02:26:33.499Z,15.62
2023-06-08T02:27:03.501Z,15.59
2023-06-08T02:27:33.632Z,15.60
2023-06-08T02:28:03.689Z,15.60
2023-06-08T02:28:33.519Z,15.57
2023-06-08T02:29:03.475Z,15.57
2023-06-08T02:29:33.454Z,15.57
2023-06-08T02:30:03.591Z,15.50
2023-06-08T02:30:33.485Z,15.49
2023-06-08T02:31:03.479Z,15.47
2023-06-08T02:31:33.424Z,15.47
2023-06-08T02:32:03.400Z,15.44
2023-06-08T02:32:33.476Z,15.41
2023-06-08T02:33:03.591Z,15.41
2023-06-08T02:33:33.442Z,15.39
2023-06-08T02:34:03.425Z,15.39
2023-06-08T02:34:33.419Z,15.36
2023-06-08T02:35:03.431Z,15.36
2023-06-08T02:35:33.339Z,15.36
2023-06-08T02:36:03.346Z,15.36
2023-06-08T02:36:33.398Z,15.38
2023-06-08T02:37:03.327Z,15.36
2023-06-08T02:37:33.358Z,15.36
2023-06-08T02:38:03.496Z,15.35
2023-06-08T02:38:33.368Z,15.35
2023-06-08T02:39:03.368Z,15.35
2023-06-08T02:39:33.350Z,15.34
2023-06-08T02:40:03.644Z,15.34
2023-06-08T02:40:33.320Z,15.34
2023-06-08T02:41:03.280Z,15.34
2023-06-08T02:41:33.497Z,15.35
2023-06-08T02:42:03.519Z,15.32
2023-06-08T02:42:33.325Z,15.32
2023-06-08T02:43:03.300Z,15.29
2023-06-08T02:43:33.271Z,15.31
2023-06-08T02:44:03.307Z,15.28
2023-06-08T02:44:33.305Z,15.32
2023-06-08T02:45:03.326Z,15.29
2023-06-08T02:45:33.279Z,15.31
2023-06-08T02:46:03.319Z,15.29
2023-06-08T02:46:33.269Z,15.29
2023-06-08T02:47:03.221Z,15.29
2023-06-08T02:47:33.269Z,15.27
2023-06-08T02:48:03.269Z,15.25
2023-06-08T02:48:33.234Z,15.23
2023-06-08T02:49:03.190Z,15.21
2023-06-08T02:49:33.215Z,15.19
2023-06-08T02:50:03.334Z,15.17
2023-06-08T02:50:33.205Z,15.14
2023-06-08T02:51:03.221Z,15.13
2023-06-08T02:51:33.175Z,15.13
2023-06-08T02:52:03.167Z,15.13
2023-06-08T02:52:33.165Z,15.11
2023-06-08T02:53:03.160Z,15.10
2023-06-08T02:53:33.189Z,15.13
2023-06-08T02:54:03.142Z,15.11
2023-06-08T02:54:33.159Z,15.11
2023-06-08T02:55:03.160Z,15.10
2023-06-08T02:55:33.249Z,15.11
2023-06-08T02:56:03.321Z,15.11
2023-06-08T02:56:33.135Z,15.13
2023-06-08T02:57:03.114Z,15.10
2023-06-08T02:57:33.127Z,15.10
2023-06-08T02:58:03.623Z,15.09
2023-06-08T02:58:33.127Z,15.09
2023-06-08T02:59:04.205Z,15.09
2023-06-08T02:59:33.079Z,15.09
2023-06-08T03:00:03.203Z,15.07
2023-06-08T03:00:33.101Z,15.07
2023-06-08T03:01:20.245Z,15.07
2023-06-08T03:01:33.123Z,15.03
2023-06-08T03:02:03.150Z,15.06
2023-06-08T03:02:33.110Z,15.06
2023-06-08T03:03:03.098Z,15.06
2023-06-08T03:03:33.157Z,15.06
2023-06-08T03:04:03.103Z,15.07
2023-06-08T03:04:33.053Z,15.06
2023-06-08T03:05:03.157Z,15.06
2023-06-08T03:05:33.026Z,15.06
2023-06-08T03:06:03.053Z,15.03
2023-06-08T03:06:32.998Z,15.01
2023-06-08T03:07:03.009Z,14.98
2023-06-08T03:07:35.346Z,14.95
2023-06-08T03:08:02.989Z,14.94
2023-06-08T03:08:33.007Z,14.92
2023-06-08T03:09:03.029Z,14.91
2023-06-08T03:09:33.140Z,14.91
2023-06-08T03:10:03.178Z,14.89
2023-06-08T03:10:32.973Z,14.91
2023-06-08T03:11:02.960Z,14.89
2023-06-08T03:11:32.982Z,14.89
2023-06-08T03:12:03.017Z,14.89
2023-06-08T03:12:32.952Z,14.89
2023-06-08T03:13:04.836Z,14.88
2023-06-08T03:13:32.952Z,14.89
2023-06-08T03:14:02.977Z,14.88
2023-06-08T03:14:32.928Z,14.89
2023-06-08T03:15:03.051Z,14.89
2023-06-08T03:15:32.926Z,14.88
2023-06-08T03:16:02.995Z,14.89
2023-06-08T03:16:33.090Z,14.91
2023-06-08T03:17:02.919Z,14.91
2023-06-08T03:17:32.913Z,14.91
2023-06-08T03:18:02.945Z,14.91
2023-06-08T03:18:32.912Z,14.92
2023-06-08T03:19:02.886Z,14.94
2023-06-08T03:19:32.896Z,14.92
2023-06-08T03:20:03.765Z,14.92
2023-06-08T03:20:32.865Z,14.94
2023-06-08T03:21:02.859Z,14.94
2023-06-08T03:21:32.863Z,14.94
2023-06-08T03:22:02.850Z,14.94
2023-06-08T03:22:32.832Z,14.94
2023-06-08T03:23:02.851Z,14.94
2023-06-08T03:23:32.984Z,14.95
2023-06-08T03:24:03.093Z,14.95
2023-06-08T03:24:32.823Z,14.94
2023-06-08T03:25:02.875Z,14.94
2023-06-08T03:25:32.824Z,14.95
2023-06-08T03:26:02.823Z,14.92
2023-06-08T03:26:32.781Z,14.91
2023-06-08T03:27:02.792Z,14.89
2023-06-08T03:27:32.838Z,14.84
2023-06-08T03:28:02.780Z,14.84
2023-06-08T03:28:32.776Z,14.83
2023-06-08T03:29:02.762Z,14.81
2023-06-08T03:29:32.759Z,14.80
2023-06-08T03:30:02.838Z,14.80
2023-06-08T03:30:32.758Z,14.80
2023-06-08T03:31:02.758Z,14.80
2023-06-08T03:31:32.816Z,14.80
2023-06-08T03:32:02.967Z,14.78
2023-06-08T03:32:33.710Z,14.78
2023-06-08T03:33:02.790Z,14.78
2023-06-08T03:33:32.725Z,14.77
2023-06-08T03:34:02.718Z,14.80
2023-06-08T03:34:32.724Z,14.78
2023-06-08T03:35:02.774Z,14.78
2023-06-08T03:35:32.693Z,14.78
2023-06-08T03:36:02.709Z,14.78
2023-06-08T03:36:32.708Z,14.78
2023-06-08T03:37:02.676Z,14.78
2023-06-08T03:37:32.801Z,14.75
2023-06-08T03:38:02.923Z,14.73
2023-06-08T03:38:32.657Z,14.70
2023-06-08T03:39:02.664Z,14.69
2023-06-08T03:39:32.654Z,14.69
2023-06-08T03:40:02.674Z,14.68
2023-06-08T03:40:32.714Z,14.65
2023-06-08T03:41:02.670Z,14.65
2023-06-08T03:41:32.648Z,14.65
2023-06-08T03:42:02.628Z,14.68
2023-06-08T03:42:32.647Z,14.68
2023-06-08T03:43:02.632Z,14.68
2023-06-08T03:43:32.607Z,14.68
2023-06-08T03:44:02.608Z,14.69
2023-06-08T03:44:32.602Z,14.69
2023-06-08T03:45:02.605Z,14.70
2023-06-08T03:45:32.594Z,14.70
2023-06-08T03:46:02.643Z,14.70
2023-06-08T03:46:32.677Z,14.72
2023-06-08T03:47:02.629Z,14.73
2023-06-08T03:47:32.658Z,14.73
2023-06-08T03:48:02.613Z,14.73
2023-06-08T03:48:32.595Z,14.73
2023-06-08T03:49:02.578Z,14.75
2023-06-08T03:49:32.637Z,14.75
2023-06-08T03:50:02.583Z,14.77
2023-06-08T03:50:32.546Z,14.77
2023-06-08T03:51:04.790Z,14.77
2023-06-08T03:51:32.659Z,14.73
2023-06-08T03:52:02.721Z,14.68
2023-06-08T03:52:32.522Z,14.60
2023-06-08T03:53:02.516Z,14.50
2023-06-08T03:53:32.523Z,14.42
2023-06-08T03:54:02.512Z,14.37
2023-06-08T03:54:32.518Z,14.35
2023-06-08T03:55:02.509Z,14.36
2023-06-08T03:55:32.508Z,14.36
2023-06-08T03:56:02.529Z,14.37
2023-06-08T03:56:32.473Z,14.37
2023-06-08T03:57:02.461Z,14.37
2023-06-08T03:57:32.492Z,14.39
2023-06-08T03:58:02.459Z,14.39
2023-06-08T03:58:32.501Z,14.40
2023-06-08T03:59:02.476Z,14.43
2023-06-08T03:59:32.465Z,14.43
2023-06-08T04:00:02.465Z,14.45
2023-06-08T04:00:32.454Z,14.45
2023-06-08T04:01:02.473Z,14.46
2023-06-08T04:01:32.452Z,14.46
2023-06-08T04:02:02.524Z,14.47
2023-06-08T04:02:33.197Z,14.50
2023-06-08T04:03:02.540Z,14.51
2023-06-08T04:03:32.472Z,14.52
2023-06-08T04:04:02.453Z,14.54
2023-06-08T04:04:32.604Z,14.54
2023-06-08T04:05:02.395Z,14.54
2023-06-08T04:05:32.505Z,14.55
2023-06-08T04:06:02.609Z,14.57
2023-06-08T04:06:32.454Z,14.55
2023-06-08T04:07:02.402Z,14.55
2023-06-08T04:07:32.364Z,14.55
2023-06-08T04:08:02.380Z,14.57
2023-06-08T04:08:32.358Z,14.58
2023-06-08T04:09:03.146Z,14.58
2023-06-08T04:09:32.367Z,14.58
2023-06-08T04:10:02.448Z,14.60
2023-06-08T04:10:32.330Z,14.61
2023-06-08T04:11:02.346Z,14.61
2023-06-08T04:11:32.363Z,14.61
2023-06-08T04:12:02.358Z,14.62
2023-06-08T04:12:32.358Z,14.62
2023-06-08T04:13:02.318Z,14.62
2023-06-08T04:13:32.308Z,14.62
2023-06-08T04:14:02.303Z,14.61
2023-06-08T04:14:32.288Z,14.62
2023-06-08T04:15:02.380Z,14.61
2023-06-08T04:15:32.296Z,14.60
2023-06-08T04:16:02.324Z,14.60
2023-06-08T04:16:32.354Z,14.60
2023-06-08T04:17:02.266Z,14.61
2023-06-08T04:17:32.284Z,14.61
2023-06-08T04:18:02.252Z,14.62
2023-06-08T04:18:32.243Z,14.62
2023-06-08T04:19:02.257Z,14.64
2023-06-08T04:19:32.378Z,14.64
2023-06-08T04:20:02.485Z,14.68
2023-06-08T04:20:32.225Z,14.65
2023-06-08T04:21:02.212Z,14.69
2023-06-08T04:21:32.402Z,14.69
2023-06-08T04:22:02.231Z,14.69
2023-06-08T04:22:32.203Z,14.70
2023-06-08T04:23:02.268Z,14.72
2023-06-08T04:23:32.307Z,14.73
2023-06-08T04:24:02.236Z,14.72
2023-06-08T04:24:32.305Z,14.73
2023-06-08T04:25:02.162Z,14.73
2023-06-08T04:25:32.162Z,14.72
2023-06-08T04:26:02.178Z,14.73
2023-06-08T04:26:32.191Z,14.75
2023-06-08T04:27:02.162Z,14.75
2023-06-08T04:27:32.184Z,14.75
2023-06-08T04:28:02.142Z,14.73
2023-06-08T04:28:32.138Z,14.70
2023-06-08T04:29:02.202Z,14.70
2023-06-08T04:29:32.161Z,14.70
2023-06-08T04:30:02.142Z,14.69
2023-06-08T04:30:32.115Z,14.70
2023-06-08T04:31:02.207Z,14.70
2023-06-08T04:31:32.262Z,14.69
2023-06-08T04:32:02.118Z,14.70
2023-06-08T04:32:32.108Z,14.70
2023-06-08T04:33:02.172Z,14.72
2023-06-08T04:33:32.204Z,14.72
2023-06-08T04:34:02.273Z,14.73
2023-06-08T04:34:32.113Z,14.75
2023-06-08T04:35:02.064Z,14.75
2023-06-08T04:35:32.090Z,14.75
2023-06-08T04:36:02.053Z,14.77
2023-06-08T04:36:32.096Z,14.78
2023-06-08T04:37:02.046Z,14.80
2023-06-08T04:37:32.064Z,14.80
2023-06-08T04:38:02.023Z,14.81
2023-06-08T04:38:32.034Z,14.83
2023-06-08T04:39:02.035Z,14.84
2023-06-08T04:39:32.015Z,14.84
2023-06-08T04:40:02.025Z,14.86
2023-06-08T04:40:32.051Z,14.86
2023-06-08T04:41:02.004Z,14.86
2023-06-08T04:41:32.032Z,14.86
2023-06-08T04:42:02.025Z,14.86
2023-06-08T04:42:31.986Z,14.88
2023-06-08T04:43:02.662Z,14.86
2023-06-08T04:43:32.005Z,14.86
2023-06-08T04:44:01.989Z,14.84
2023-06-08T04:44:31.992Z,14.86
2023-06-08T04:45:01.961Z,14.84
2023-06-08T04:45:31.967Z,14.88
2023-06-08T04:46:02.120Z,14.86
2023-06-08T04:46:32.192Z,14.86
2023-06-08T04:47:01.965Z,14.88
2023-06-08T04:47:32.129Z,14.88
2023-06-08T04:48:02.201Z,14.92
2023-06-08T04:48:31.965Z,14.86
2023-06-08T04:49:01.914Z,14.88
2023-06-08T04:49:31.909Z,14.88
2023-06-08T04:50:01.962Z,14.88
2023-06-08T04:50:31.936Z,14.89
2023-06-08T04:51:01.898Z,14.88
2023-06-08T04:51:31.910Z,14.88
2023-06-08T04:52:01.914Z,14.88
2023-06-08T04:52:31.881Z,14.86
2023-06-08T04:53:01.879Z,14.89
2023-06-08T04:53:31.869Z,14.89
2023-06-08T04:54:01.893Z,14.91
2023-06-08T04:54:33.540Z,14.89
2023-06-08T04:55:01.877Z,14.92
2023-06-08T04:55:31.883Z,14.91
2023-06-08T04:56:01.916Z,14.92
2023-06-08T04:56:31.850Z,14.94
2023-06-08T04:57:01.979Z,14.95
2023-06-08T04:57:31.857Z,14.96
2023-06-08T04:58:01.841Z,14.96
2023-06-08T04:58:31.863Z,14.98
2023-06-08T04:59:01.831Z,14.99
2023-06-08T04:59:31.814Z,15.01
2023-06-08T05:00:01.810Z,15.01
2023-06-08T05:00:31.784Z,15.03
2023-06-08T05:01:02.732Z,15.06
2023-06-08T05:01:31.977Z,15.07
2023-06-08T05:02:01.984Z,15.09
2023-06-08T05:02:31.817Z,15.09
2023-06-08T05:03:01.963Z,15.10
2023-06-08T05:03:31.854Z,15.11
2023-06-08T05:04:01.851Z,15.13
2023-06-08T05:04:31.755Z,15.14
2023-06-08T05:05:01.771Z,15.14
2023-06-08T05:05:31.777Z,15.16
2023-06-08T05:06:01.790Z,15.14
2023-06-08T05:06:31.795Z,15.17
2023-06-08T05:07:02.659Z,15.19
2023-06-08T05:07:31.726Z,15.20
2023-06-08T05:08:02.674Z,15.19
2023-06-08T05:08:31.700Z,15.21
2023-06-08T05:09:01.748Z,15.23
2023-06-08T05:09:31.716Z,15.23
2023-06-08T05:10:01.712Z,15.25
2023-06-08T05:10:31.717Z,15.25
2023-06-08T05:11:01.681Z,15.28
2023-06-08T05:11:31.681Z,15.29
2023-06-08T05:12:01.687Z,15.31
2023-06-08T05:12:31.670Z,15.32
2023-06-08T05:13:01.692Z,15.31
2023-06-08T05:13:31.674Z,15.34
2023-06-08T05:14:01.664Z,15.32
2023-06-08T05:14:31.680Z,15.35
2023-06-08T05:15:01.635Z,15.35
2023-06-08T05:15:31.746Z,15.35
2023-06-08T05:16:01.813Z,15.35
2023-06-08T05:16:31.707Z,15.35
2023-06-08T05:17:01.681Z,15.36
2023-06-08T05:17:31.720Z,15.36
2023-06-08T05:18:01.718Z,15.36
2023-06-08T05:18:31.609Z,15.39
2023-06-08T05:19:01.622Z,15.39
2023-06-08T05:19:31.677Z,15.39
2023-06-08T05:20:01.595Z,15.38
2023-06-08T05:20:31.684Z,15.39
2023-06-08T05:21:01.578Z,15.41
2023-06-08T05:21:32.160Z,15.41
2023-06-08T05:22:01.597Z,15.41
2023-06-08T05:22:31.550Z,15.41
2023-06-08T05:23:01.606Z,15.41
2023-06-08T05:23:31.660Z,15.41
2023-06-08T05:24:01.552Z,15.41
2023-06-08T05:24:31.541Z,15.39
2023-06-08T05:25:01.541Z,15.41
2023-06-08T05:25:31.543Z,15.41
2023-06-08T05:26:01.526Z,15.39
2023-06-08T05:26:31.620Z,15.39
2023-06-08T05:27:01.515Z,15.35
2023-06-08T05:27:31.528Z,15.31
2023-06-08T05:28:01.507Z,15.27
2023-06-08T05:28:31.537Z,15.27
2023-06-08T05:29:01.493Z,15.25
2023-06-08T05:29:31.697Z,15.25
2023-06-08T05:30:02.002Z,15.23
2023-06-08T05:30:31.485Z,15.23
2023-06-08T05:31:01.537Z,15.23
2023-06-08T05:31:31.560Z,15.23
2023-06-08T05:32:01.450Z,15.21
2023-06-08T05:32:31.468Z,15.20
2023-06-08T05:33:01.649Z,15.21
2023-06-08T05:33:31.480Z,15.20
2023-06-08T05:34:01.473Z,15.20
2023-06-08T05:34:31.442Z,15.21
2023-06-08T05:35:01.450Z,15.21
2023-06-08T05:35:31.430Z,15.25
2023-06-08T05:36:05.256Z,15.27
2023-06-08T05:36:31.444Z,15.27
2023-06-08T05:37:01.495Z,15.29
2023-06-08T05:37:31.412Z,15.29
2023-06-08T05:38:01.426Z,15.31
2023-06-08T05:38:31.393Z,15.29
2023-06-08T05:39:01.422Z,15.31
2023-06-08T05:39:31.467Z,15.32
2023-06-08T05:40:01.384Z,15.32
2023-06-08T05:40:31.369Z,15.34
2023-06-08T05:41:01.367Z,15.36
2023-06-08T05:41:31.468Z,15.36
2023-06-08T05:42:01.362Z,15.36
2023-06-08T05:42:31.358Z,15.36
2023-06-08T05:43:01.350Z,15.38
2023-06-08T05:43:31.472Z,15.38
2023-06-08T05:44:01.546Z,15.41
2023-06-08T05:44:31.348Z,15.39
2023-06-08T05:45:01.311Z,15.41
2023-06-08T05:45:31.363Z,15.41
2023-06-08T05:46:01.303Z,15.41
2023-06-08T05:46:31.329Z,15.43
2023-06-08T05:47:01.300Z,15.41
2023-06-08T05:47:34.818Z,15.44
2023-06-08T05:48:01.398Z,15.43
2023-06-08T05:48:31.358Z,15.44
2023-06-08T05:49:01.308Z,15.44
2023-06-08T05:49:31.290Z,15.46
2023-06-08T05:50:01.268Z,15.46
2023-06-08T05:50:31.261Z,15.47
2023-06-08T05:51:01.268Z,15.47
2023-06-08T05:51:31.292Z,15.49
2023-06-08T05:52:01.281Z,15.49
2023-06-08T05:52:31.233Z,15.47
2023-06-08T05:53:01.245Z,15.50
2023-06-08T05:53:31.271Z,15.51
2023-06-08T05:54:01.219Z,15.51
2023-06-08T05:54:31.221Z,15.53
2023-06-08T05:55:01.233Z,15.53
2023-06-08T05:55:31.212Z,15.54
2023-06-08T05:56:01.231Z,15.57
2023-06-08T05:56:31.612Z,15.56
2023-06-08T05:57:01.204Z,15.57
2023-06-08T05:57:31.354Z,15.57
2023-06-08T05:58:01.370Z,15.59
2023-06-08T05:58:45.229Z,15.60
2023-06-08T05:59:01.171Z,15.57
2023-06-08T05:59:31.180Z,15.57
2023-06-08T06:00:01.310Z,15.57
2023-06-08T06:00:31.173Z,15.57
2023-06-08T06:01:01.169Z,15.56
2023-06-08T06:01:31.176Z,15.56
2023-06-08T06:02:01.148Z,15.57
2023-06-08T06:02:31.245Z,15.59
2023-06-08T06:03:04.060Z,15.57
2023-06-08T06:03:31.270Z,15.57
2023-06-08T06:04:01.307Z,15.60
2023-06-08T06:04:37.477Z,15.59
2023-06-08T06:05:01.246Z,15.60
2023-06-08T06:05:31.151Z,15.62
2023-06-08T06:06:01.121Z,15.62
2023-06-08T06:06:31.104Z,15.62
2023-06-08T06:07:01.135Z,15.64
2023-06-08T06:07:31.118Z,15.64
2023-06-08T06:08:01.115Z,15.65
2023-06-08T06:08:31.100Z,15.67
2023-06-08T06:09:01.115Z,15.67
2023-06-08T06:09:31.075Z,15.69
2023-06-08T06:10:01.043Z,15.69
2023-06-08T06:10:31.159Z,15.69
2023-06-08T06:11:01.045Z,15.71
2023-06-08T06:11:31.154Z,15.69
2023-06-08T06:12:01.250Z,15.71
2023-06-08T06:12:31.110Z,15.72
2023-06-08T06:13:01.105Z,15.74
2023-06-08T06:13:31.063Z,15.76
2023-06-08T06:14:01.045Z,15.78
2023-06-08T06:14:31.065Z,15.80
2023-06-08T06:15:01.064Z,15.82
2023-06-08T06:15:31.016Z,15.80
2023-06-08T06:16:01.132Z,15.82
2023-06-08T06:16:31.034Z,15.82
2023-06-08T06:17:31.153Z,15.82
2023-06-08T06:18:01.053Z,15.82
2023-06-08T06:18:31.065Z,15.83
2023-06-08T06:19:01.016Z,15.83
2023-06-08T06:19:30.989Z,15.84
2023-06-08T06:20:00.980Z,15.86
2023-06-08T06:20:31.058Z,15.86
2023-06-08T06:21:00.952Z,15.86
2023-06-08T06:21:30.996Z,15.86
2023-06-08T06:22:00.921Z,15.84
2023-06-08T06:22:30.966Z,15.84
2023-06-08T06:23:00.920Z,15.84
2023-06-08T06:23:30.921Z,15.86
2023-06-08T06:24:00.981Z,15.86
2023-06-08T06:24:30.924Z,15.86
2023-06-08T06:25:00.897Z,15.89
2023-06-08T06:25:31.027Z,15.89
2023-06-08T06:26:01.091Z,15.89
2023-06-08T06:26:30.903Z,15.90